Time,TemperatureF,DewpointF,PressureIn,WindDirection,WindDirectionDegrees,WindSpeedMPH,WindSpeedGustMPH,Humidity,HourlyPrecipIn,Conditions,Clouds,dailyrainin,SoftwareType,DateUTC
2013-10-02 00:04:00,68.0,35.0,30.07,WNW,286,0.0,2.0,29,0.00,,,0.00,,2013-10-02 05:04:00,
2013-10-02 00:22:00,67.0,34.0,30.07,West,275,0.0,6.0,29,0.00,,,0.00,,2013-10-02 05:22:00,
2013-10-02 00:33:00,67.0,34.0,30.07,West,275,0.0,6.0,29,0.00,,,0.00,,2013-10-02 05:33:00,
2013-10-02 00:53:00,68.0,35.0,30.07,WNW,290,0.0,2.0,29,0.00,,,0.00,,2013-10-02 05:53:00,
2013-10-02 01:03:00,68.0,35.0,30.07,WNW,290,0.0,2.0,29,0.00,,,0.00,,2013-10-02 06:03:00,
2013-10-02 01:22:00,67.0,35.0,30.07,WNW,290,0.0,0.0,30,0.00,,,0.00,,2013-10-02 06:22:00,
2013-10-02 01:32:00,67.0,35.0,30.07,WNW,290,0.0,0.0,30,0.00,,,0.00,,2013-10-02 06:32:00,
2013-10-02 01:52:00,65.0,34.0,30.06,WNW,290,0.0,2.0,31,0.00,,,0.00,,2013-10-02 06:52:00,
2013-10-02 02:02:00,65.0,34.0,30.06,WNW,290,0.0,2.0,31,0.00,,,0.00,,2013-10-02 07:02:00,
2013-10-02 02:12:00,65.0,34.0,30.06,WNW,290,0.0,2.0,31,0.00,,,0.00,,2013-10-02 07:12:00,
2013-10-02 02:22:00,66.0,33.0,30.07,WNW,290,0.0,0.0,29,0.00,,,0.00,,2013-10-02 07:22:00,
2013-10-02 02:32:00,66.0,33.0,30.07,WNW,290,0.0,0.0,29,0.00,,,0.00,,2013-10-02 07:32:00,
2013-10-02 02:52:00,65.0,34.0,30.07,WNW,290,0.0,0.0,31,0.00,,,0.00,,2013-10-02 07:52:00,
2013-10-02 03:03:00,65.0,34.0,30.07,WNW,290,0.0,0.0,31,0.00,,,0.00,,2013-10-02 08:03:00,
2013-10-02 03:22:00,64.0,32.0,30.06,WNW,290,0.0,2.0,30,0.00,,,0.00,,2013-10-02 08:22:00,
2013-10-02 03:32:00,64.0,32.0,30.06,WNW,290,0.0,2.0,30,0.00,,,0.00,,2013-10-02 08:32:00,
2013-10-02 03:52:00,62.0,33.0,30.06,WNW,290,1.0,3.0,33,0.00,,,0.00,,2013-10-02 08:52:00,
2013-10-02 04:01:00,62.0,33.0,30.06,WNW,290,1.0,3.0,33,0.00,,,0.00,,2013-10-02 09:01:00,
2013-10-02 04:21:00,61.0,32.0,30.06,WNW,290,0.0,0.0,33,0.00,,,0.00,,2013-10-02 09:21:00,
2013-10-02 04:33:00,61.0,32.0,30.06,WNW,290,0.0,0.0,33,0.00,,,0.00,,2013-10-02 09:33:00,
2013-10-02 04:54:00,62.0,32.0,30.06,WNW,290,0.0,1.0,32,0.00,,,0.00,,2013-10-02 09:54:00,
2013-10-02 05:03:00,62.0,32.0,30.06,WNW,290,0.0,1.0,32,0.00,,,0.00,,2013-10-02 10:03:00,
2013-10-02 05:23:00,62.0,31.0,30.05,WNW,290,0.0,2.0,31,0.00,,,0.00,,2013-10-02 10:23:00,
2013-10-02 05:33:00,62.0,31.0,30.05,WNW,290,0.0,2.0,31,0.00,,,0.00,,2013-10-02 10:33:00,
2013-10-02 05:53:00,65.0,30.0,30.05,West,277,2.0,6.0,27,0.00,,,0.00,,2013-10-02 10:53:00,
2013-10-02 06:03:00,65.0,30.0,30.05,West,277,2.0,6.0,27,0.00,,,0.00,,2013-10-02 11:03:00,
2013-10-02 06:22:00,62.0,30.0,30.08,West,275,0.0,1.0,30,0.00,,,0.00,,2013-10-02 11:22:00,
2013-10-02 06:33:00,62.0,30.0,30.08,West,275,0.0,1.0,30,0.00,,,0.00,,2013-10-02 11:33:00,
2013-10-02 06:52:00,61.0,31.0,30.08,West,279,1.0,3.0,32,0.00,,,0.00,,2013-10-02 11:52:00,
2013-10-02 07:02:00,61.0,31.0,30.08,West,279,1.0,3.0,32,0.00,,,0.00,,2013-10-02 12:02:00,
2013-10-02 07:12:00,61.0,31.0,30.08,West,279,1.0,3.0,32,0.00,,,0.00,,2013-10-02 12:12:00,
2013-10-02 07:22:00,62.0,31.0,30.08,West,279,0.0,0.0,31,0.00,,,0.00,,2013-10-02 12:22:00,
2013-10-02 07:32:00,62.0,31.0,30.08,West,279,0.0,0.0,31,0.00,,,0.00,,2013-10-02 12:32:00,
2013-10-02 07:52:00,62.0,30.0,30.09,West,279,0.0,1.0,30,0.00,,,0.00,,2013-10-02 12:52:00,
2013-10-02 08:22:00,60.0,29.0,30.10,West,279,0.0,1.0,31,0.00,,,0.00,,2013-10-02 13:22:00,
2013-10-02 08:32:00,60.0,29.0,30.10,West,279,0.0,1.0,31,0.00,,,0.00,,2013-10-02 13:32:00,
2013-10-02 08:52:00,64.0,31.0,30.11,WNW,286,2.0,4.0,29,0.00,,,0.00,,2013-10-02 13:52:00,
2013-10-02 09:02:00,64.0,31.0,30.11,WNW,286,2.0,4.0,29,0.00,,,0.00,,2013-10-02 14:02:00,
2013-10-02 10:22:00,77.0,36.0,30.12,WNW,283,3.0,6.0,23,0.00,,,0.00,,2013-10-02 15:22:00,
2013-10-02 10:33:00,77.0,36.0,30.12,WNW,283,3.0,6.0,23,0.00,,,0.00,,2013-10-02 15:33:00,
2013-10-02 10:54:00,79.0,38.0,30.13,West,264,3.0,6.0,23,0.00,,,0.00,,2013-10-02 15:54:00,
2013-10-02 11:03:00,79.0,38.0,30.13,West,264,3.0,6.0,23,0.00,,,0.00,,2013-10-02 16:03:00,
2013-10-02 11:12:00,79.0,38.0,30.13,West,264,3.0,6.0,23,0.00,,,0.00,,2013-10-02 16:12:00,
2013-10-02 11:23:00,81.0,37.0,30.12,WNW,298,6.0,11.0,21,0.00,,,0.00,,2013-10-02 16:23:00,
2013-10-02 11:32:00,81.0,37.0,30.12,WNW,298,6.0,11.0,21,0.00,,,0.00,,2013-10-02 16:32:00,
2013-10-02 11:52:00,82.0,38.0,30.12,West,274,5.0,10.0,21,0.00,,,0.00,,2013-10-02 16:52:00,
2013-10-02 12:02:00,82.0,38.0,30.12,West,274,5.0,10.0,21,0.00,,,0.00,,2013-10-02 17:02:00,
2013-10-02 12:23:00,82.0,37.0,30.11,WNW,301,10.0,14.0,20,0.00,,,0.00,,2013-10-02 17:23:00,
2013-10-02 12:33:00,82.0,37.0,30.11,WNW,301,10.0,14.0,20,0.00,,,0.00,,2013-10-02 17:33:00,
2013-10-02 12:42:00,82.0,37.0,30.11,WNW,301,10.0,14.0,20,0.00,,,0.00,,2013-10-02 17:42:00,
2013-10-02 12:52:00,84.0,39.0,30.11,South,172,8.0,14.0,20,0.00,,,0.00,,2013-10-02 17:52:00,
2013-10-02 13:02:00,84.0,39.0,30.11,South,172,8.0,14.0,20,0.00,,,0.00,,2013-10-02 18:02:00,
2013-10-02 13:12:00,84.0,39.0,30.11,South,172,8.0,14.0,20,0.00,,,0.00,,2013-10-02 18:12:00,
2013-10-02 13:21:00,84.0,41.0,30.10,WSW,256,3.0,12.0,22,0.00,,,0.00,,2013-10-02 18:21:00,
2013-10-02 13:32:00,84.0,41.0,30.10,WSW,256,3.0,12.0,22,0.00,,,0.00,,2013-10-02 18:32:00,
2013-10-02 13:52:00,86.0,39.0,30.08,NW,313,4.0,12.0,19,0.00,,,0.00,,2013-10-02 18:52:00,
2013-10-02 14:02:00,86.0,39.0,30.08,NW,313,4.0,12.0,19,0.00,,,0.00,,2013-10-02 19:02:00,
2013-10-02 14:22:00,87.0,40.0,30.07,SW,232,7.0,10.0,19,0.00,,,0.00,,2013-10-02 19:22:00,
2013-10-02 14:32:00,87.0,40.0,30.07,SW,232,7.0,10.0,19,0.00,,,0.00,,2013-10-02 19:32:00,
2013-10-02 14:52:00,86.0,40.0,30.06,West,277,11.0,17.0,20,0.00,,,0.00,,2013-10-02 19:52:00,
2013-10-02 15:02:00,86.0,40.0,30.06,West,277,11.0,17.0,20,0.00,,,0.00,,2013-10-02 20:02:00,
2013-10-02 15:11:00,86.0,40.0,30.06,West,277,11.0,17.0,20,0.00,,,0.00,,2013-10-02 20:11:00,
2013-10-02 15:22:00,87.0,41.0,30.04,WSW,238,5.0,12.0,20,0.00,,,0.00,,2013-10-02 20:22:00,
2013-10-02 15:32:00,87.0,41.0,30.04,WSW,238,5.0,12.0,20,0.00,,,0.00,,2013-10-02 20:32:00,
2013-10-02 15:52:00,88.0,42.0,30.03,SW,215,4.0,11.0,20,0.00,,,0.00,,2013-10-02 20:52:00,
2013-10-02 16:02:00,88.0,42.0,30.03,SW,215,4.0,11.0,20,0.00,,,0.00,,2013-10-02 21:02:00,
2013-10-02 16:22:00,88.0,41.0,30.02,SSE,165,7.0,16.0,19,0.00,,,0.00,,2013-10-02 21:22:00,
2013-10-02 16:34:00,88.0,41.0,30.02,SSE,165,7.0,16.0,19,0.00,,,0.00,,2013-10-02 21:34:00,
2013-10-02 16:55:00,89.0,43.0,30.01,West,272,9.0,14.0,20,0.00,,,0.00,,2013-10-02 21:55:00,
2013-10-02 17:04:00,89.0,43.0,30.01,West,272,9.0,14.0,20,0.00,,,0.00,,2013-10-02 22:04:00,
2013-10-02 17:24:00,88.0,41.0,30.01,WNW,290,5.0,12.0,19,0.00,,,0.00,,2013-10-02 22:24:00,
2013-10-02 17:33:00,88.0,41.0,30.01,WNW,290,5.0,12.0,19,0.00,,,0.00,,2013-10-02 22:33:00,
2013-10-02 17:44:00,88.0,41.0,30.01,WNW,290,5.0,12.0,19,0.00,,,0.00,,2013-10-02 22:44:00,
2013-10-02 18:22:00,86.0,41.0,30.00,SW,215,3.0,10.0,21,0.00,,,0.00,,2013-10-02 23:22:00,
2013-10-02 18:33:00,86.0,41.0,30.00,SW,215,3.0,10.0,21,0.00,,,0.00,,2013-10-02 23:33:00,
2013-10-02 18:52:00,86.0,41.0,30.00,SW,220,2.0,5.0,21,0.00,,,0.00,,2013-10-02 23:52:00,
2013-10-02 19:02:00,86.0,41.0,30.00,SW,220,2.0,5.0,21,0.00,,,0.00,,2013-10-03 00:02:00,
2013-10-02 19:22:00,85.0,41.0,30.01,West,271,3.0,7.0,21,0.00,,,0.00,,2013-10-03 00:22:00,
2013-10-02 19:32:00,85.0,41.0,30.01,West,271,3.0,7.0,21,0.00,,,0.00,,2013-10-03 00:32:00,
2013-10-02 19:42:00,85.0,41.0,30.01,West,271,3.0,7.0,21,0.00,,,0.00,,2013-10-03 00:42:00,
2013-10-02 19:52:00,81.0,40.0,30.01,West,277,3.0,7.0,23,0.00,,,0.00,,2013-10-03 00:52:00,
2013-10-02 20:02:00,81.0,40.0,30.01,West,277,3.0,7.0,23,0.00,,,0.00,,2013-10-03 01:02:00,
2013-10-02 20:11:00,81.0,40.0,30.01,West,277,3.0,7.0,23,0.00,,,0.00,,2013-10-03 01:11:00,
2013-10-02 20:22:00,78.0,40.0,30.02,WNW,287,0.0,1.0,26,0.00,,,0.00,,2013-10-03 01:22:00,
2013-10-02 20:32:00,78.0,40.0,30.02,WNW,287,0.0,1.0,26,0.00,,,0.00,,2013-10-03 01:32:00,
2013-10-02 20:42:00,78.0,40.0,30.02,WNW,287,0.0,1.0,26,0.00,,,0.00,,2013-10-03 01:42:00,
2013-10-02 20:52:00,74.0,40.0,30.02,West,277,1.0,3.0,29,0.00,,,0.00,,2013-10-03 01:52:00,
2013-10-02 21:02:00,74.0,40.0,30.02,West,277,1.0,3.0,29,0.00,,,0.00,,2013-10-03 02:02:00,
2013-10-02 21:22:00,72.0,40.0,30.03,WNW,290,0.0,1.0,31,0.00,,,0.00,,2013-10-03 02:22:00,
2013-10-02 21:32:00,72.0,40.0,30.03,WNW,290,0.0,1.0,31,0.00,,,0.00,,2013-10-03 02:32:00,
2013-10-02 21:42:00,72.0,40.0,30.03,WNW,290,0.0,1.0,31,0.00,,,0.00,,2013-10-03 02:42:00,
2013-10-02 22:22:00,70.0,39.0,30.05,SW,236,0.0,3.0,32,0.00,,,0.00,,2013-10-03 03:22:00,
2013-10-02 22:35:00,70.0,39.0,30.05,SW,236,0.0,3.0,32,0.00,,,0.00,,2013-10-03 03:35:00,
2013-10-02 22:44:00,70.0,39.0,30.05,SW,236,0.0,3.0,32,0.00,,,0.00,,2013-10-03 03:44:00,
2013-10-02 22:54:00,69.0,39.0,30.05,NW,309,0.0,4.0,34,0.00,,,0.00,,2013-10-03 03:54:00,
2013-10-02 23:05:00,69.0,39.0,30.05,NW,309,0.0,4.0,34,0.00,,,0.00,,2013-10-03 04:05:00,
2013-10-02 23:24:00,68.0,40.0,30.05,East,82,0.0,3.0,36,0.00,,,0.00,,2013-10-03 04:24:00,
2013-10-02 23:34:00,68.0,40.0,30.05,East,82,0.0,3.0,36,0.00,,,0.00,,2013-10-03 04:34:00,
2013-10-02 23:53:00,66.0,40.0,30.05,WNW,302,1.0,3.0,39,0.00,,,0.00,,2013-10-03 04:53:00,